createdAt,value
2023-05-14T00:02:05.587Z,11.54
2023-05-14T00:04:33.256Z,11.45
2023-05-14T00:07:02.226Z,11.40
2023-05-14T00:09:30.293Z,11.48
2023-05-14T00:11:57.861Z,11.49
2023-05-14T00:14:25.376Z,11.49
2023-05-14T00:16:52.892Z,11.50
2023-05-14T00:19:20.701Z,11.45
2023-05-14T00:21:48.284Z,11.18
2023-05-14T00:24:17.115Z,11.29
2023-05-14T00:26:44.720Z,11.10
2023-05-14T00:29:12.257Z,11.12
2023-05-14T00:31:39.853Z,11.09
2023-05-14T00:34:07.447Z,10.74
2023-05-14T00:36:34.991Z,10.43
2023-05-14T00:39:02.524Z,10.32
2023-05-14T00:41:31.368Z,10.28
2023-05-14T00:43:59.050Z,10.28
2023-05-14T00:46:26.886Z,10.43
2023-05-14T00:48:54.656Z,10.27
2023-05-14T00:51:23.186Z,10.35
2023-05-14T00:53:51.801Z,10.21
2023-05-14T00:56:19.917Z,10.12
2023-05-14T00:58:48.785Z,10.09
2023-05-14T01:01:16.629Z,10.03
2023-05-14T01:03:45.280Z,10.09
2023-05-14T01:06:19.623Z,9.94
2023-05-14T01:09:09.873Z,10.03
2023-05-14T01:11:43.174Z,10.05
2023-05-14T01:14:21.102Z,10.14
2023-05-14T01:16:49.341Z,10.20
2023-05-14T01:19:24.215Z,10.05
2023-05-14T01:21:53.101Z,10.13
2023-05-14T01:24:20.672Z,10.18
2023-05-14T01:26:48.337Z,10.11
2023-05-14T01:29:21.014Z,10.13
2023-05-14T01:31:50.818Z,10.06
2023-05-14T01:34:22.065Z,10.16
2023-05-14T01:36:51.172Z,10.07
2023-05-14T01:39:20.825Z,10.36
2023-05-14T01:41:49.582Z,10.32
2023-05-14T01:44:18.450Z,10.61
2023-05-14T01:46:45.964Z,10.39
2023-05-14T01:49:13.635Z,10.37
2023-05-14T01:51:41.274Z,10.37
2023-05-14T01:54:08.816Z,10.02
2023-05-14T01:56:37.671Z,10.15
2023-05-14T01:59:05.261Z,10.14
2023-05-14T02:01:33.810Z,10.21
2023-05-14T02:04:01.992Z,10.29
2023-05-14T02:06:29.549Z,10.40
2023-05-14T02:08:57.045Z,10.34
2023-05-14T02:11:24.560Z,10.41
2023-05-14T02:13:53.453Z,10.50
2023-05-14T02:16:20.991Z,10.44
2023-05-14T02:18:48.516Z,10.39
2023-05-14T02:21:16.081Z,10.10
2023-05-14T02:23:44.171Z,9.93
2023-05-14T02:26:13.072Z,10.06
2023-05-14T02:28:40.678Z,9.94
2023-05-14T02:31:09.567Z,10.23
2023-05-14T02:33:37.178Z,10.07
2023-05-14T02:36:04.793Z,9.92
2023-05-14T02:38:32.347Z,9.86
2023-05-14T02:40:59.815Z,9.92
2023-05-14T02:43:27.351Z,10.04
2023-05-14T02:45:54.927Z,10.00
2023-05-14T02:48:23.831Z,10.08
2023-05-14T02:50:52.057Z,10.19
2023-05-14T02:53:19.666Z,10.34
2023-05-14T02:55:47.173Z,10.35
2023-05-14T02:58:14.974Z,10.40
2023-05-14T03:00:42.484Z,10.31
2023-05-14T03:03:10.366Z,10.39
2023-05-14T03:05:39.809Z,10.45
2023-05-14T03:08:07.570Z,10.48
2023-05-14T03:10:35.116Z,10.52
2023-05-14T03:13:02.643Z,10.47
2023-05-14T03:15:30.424Z,10.30
2023-05-14T03:17:57.968Z,10.45
2023-05-14T03:20:26.333Z,10.36
2023-05-14T03:22:56.031Z,10.51
2023-05-14T03:25:23.566Z,10.01
2023-05-14T03:27:51.072Z,10.14
2023-05-14T03:30:18.659Z,10.31
2023-05-14T03:32:46.467Z,10.22
2023-05-14T03:35:13.983Z,10.43
2023-05-14T03:37:41.452Z,10.44
2023-05-14T03:40:11.098Z,10.54
2023-05-14T03:42:38.563Z,10.38
2023-05-14T03:45:07.626Z,10.22
2023-05-14T03:47:35.153Z,10.45
2023-05-14T03:50:02.651Z,10.41
2023-05-14T03:52:30.547Z,10.55
2023-05-14T03:54:58.036Z,10.41
2023-05-14T03:57:26.874Z,10.60
2023-05-14T03:59:54.368Z,10.77
2023-05-14T04:02:21.958Z,10.45
2023-05-14T04:04:49.572Z,10.65
2023-05-14T04:07:17.134Z,10.57
2023-05-14T04:09:44.634Z,10.40
2023-05-14T04:12:12.186Z,10.65
2023-05-14T04:14:41.090Z,10.75
2023-05-14T04:17:08.590Z,10.71
2023-05-14T04:19:36.104Z,10.50
2023-05-14T04:22:03.988Z,10.28
2023-05-14T04:24:31.546Z,10.15
2023-05-14T04:26:59.076Z,10.04
2023-05-14T04:29:26.572Z,10.32
2023-05-14T04:31:55.977Z,10.47
2023-05-14T04:34:23.537Z,10.36
2023-05-14T04:36:51.759Z,10.48
2023-05-14T04:39:20.390Z,10.72
2023-05-14T04:41:47.876Z,10.78
2023-05-14T04:44:15.754Z,10.95
2023-05-14T04:46:43.244Z,11.06
2023-05-14T04:49:12.276Z,11.14
2023-05-14T04:51:39.813Z,11.23
2023-05-14T04:54:07.369Z,11.29
2023-05-14T04:56:34.902Z,11.29
2023-05-14T04:59:02.455Z,11.32
2023-05-14T05:01:30.074Z,11.35
2023-05-14T05:03:58.105Z,11.38
2023-05-14T05:06:27.013Z,11.42
2023-05-14T05:08:54.537Z,11.39
2023-05-14T05:11:22.054Z,11.32
2023-05-14T05:13:49.559Z,11.34
2023-05-14T05:16:17.301Z,11.40
2023-05-14T05:18:45.604Z,11.34
2023-05-14T05:21:13.152Z,11.40
2023-05-14T05:23:42.021Z,11.40
2023-05-14T05:26:09.746Z,11.37
2023-05-14T05:28:37.246Z,11.04
2023-05-14T05:31:05.007Z,11.10
2023-05-14T05:33:32.672Z,11.26
2023-05-14T05:36:00.203Z,11.37
2023-05-14T05:38:27.755Z,11.40
2023-05-14T05:40:56.694Z,11.20
2023-05-14T05:43:24.180Z,11.28
2023-05-14T05:45:51.700Z,11.41
2023-05-14T05:48:19.194Z,11.43
2023-05-14T05:50:48.977Z,11.18
2023-05-14T05:53:17.534Z,11.08
2023-05-14T05:55:45.044Z,11.06
2023-05-14T05:58:15.689Z,11.07
2023-05-14T06:00:43.218Z,10.93
2023-05-14T06:03:10.795Z,11.08
2023-05-14T06:05:38.430Z,11.09
2023-05-14T06:08:06.396Z,11.06
2023-05-14T06:10:34.716Z,11.29
2023-05-14T06:13:02.283Z,11.37
2023-05-14T06:15:31.248Z,11.34
2023-05-14T06:17:58.930Z,11.35
2023-05-14T06:20:26.622Z,11.33
2023-05-14T06:22:55.403Z,11.26
2023-05-14T06:25:23.060Z,11.24
2023-05-14T06:27:50.583Z,11.29
2023-05-14T06:30:18.130Z,11.20
2023-05-14T06:32:46.983Z,11.16
2023-05-14T06:35:14.518Z,11.19
2023-05-14T06:37:42.009Z,11.34
2023-05-14T06:40:10.666Z,11.46
2023-05-14T06:42:38.196Z,11.44
2023-05-14T06:45:06.733Z,11.62
2023-05-14T06:47:34.339Z,11.67
2023-05-14T06:50:03.261Z,11.65
2023-05-14T06:52:30.883Z,11.82
2023-05-14T06:54:58.418Z,11.82
2023-05-14T06:57:26.064Z,11.98
2023-05-14T06:59:53.536Z,12.02
2023-05-14T07:02:21.156Z,12.05
2023-05-14T07:04:49.031Z,12.12
2023-05-14T07:07:20.553Z,12.26
2023-05-14T07:09:48.228Z,12.19
2023-05-14T07:12:15.737Z,12.25
2023-05-14T07:14:43.240Z,12.53
2023-05-14T07:17:11.067Z,13.47
2023-05-14T07:19:38.617Z,13.70
2023-05-14T07:22:06.145Z,13.72
2023-05-14T07:24:35.160Z,14.68
2023-05-14T07:27:02.897Z,15.24
2023-05-14T07:29:31.053Z,15.25
2023-05-14T07:31:58.564Z,14.59
2023-05-14T07:34:26.099Z,15.14
2023-05-14T07:36:54.002Z,15.58
2023-05-14T07:39:22.672Z,15.63
2023-05-14T07:41:51.826Z,15.69
2023-05-14T07:44:19.436Z,15.60
2023-05-14T07:46:46.938Z,15.73
2023-05-14T07:49:14.425Z,15.98
2023-05-14T07:51:41.956Z,16.28
2023-05-14T07:54:09.537Z,16.54
2023-05-14T07:56:37.031Z,16.43
2023-05-14T07:59:06.989Z,16.23
2023-05-14T08:01:34.473Z,16.13
2023-05-14T08:04:02.182Z,16.15
2023-05-14T08:06:29.914Z,15.66
2023-05-14T08:08:57.426Z,14.60
2023-05-14T08:11:24.935Z,15.00
2023-05-14T08:13:52.492Z,15.63
2023-05-14T08:16:21.391Z,15.16
2023-05-14T08:18:49.520Z,15.30
2023-05-14T08:21:17.479Z,15.15
2023-05-14T08:23:45.445Z,15.66
2023-05-14T08:26:12.960Z,15.19
2023-05-14T08:28:40.519Z,15.01
2023-05-14T08:31:08.239Z,15.27
2023-05-14T08:33:37.184Z,15.46
2023-05-14T08:36:05.416Z,15.06
2023-05-14T08:38:33.079Z,15.34
2023-05-14T08:41:01.457Z,15.62
2023-05-14T08:43:35.362Z,15.07
2023-05-14T08:46:06.730Z,14.97
2023-05-14T08:48:36.038Z,14.94
2023-05-14T08:51:05.273Z,15.33
2023-05-14T08:53:32.854Z,15.58
2023-05-14T08:56:02.044Z,15.35
2023-05-14T08:58:29.829Z,15.25
2023-05-14T09:00:57.550Z,15.12
2023-05-14T09:03:25.376Z,15.20
2023-05-14T09:05:53.127Z,14.51
2023-05-14T09:08:22.233Z,14.32
2023-05-14T09:10:49.771Z,14.57
2023-05-14T09:13:17.327Z,14.37
2023-05-14T09:15:44.819Z,14.22
2023-05-14T09:18:12.579Z,14.52
2023-05-14T09:20:40.299Z,14.56
2023-05-14T09:23:07.878Z,14.45
2023-05-14T09:25:36.708Z,14.10
2023-05-14T09:28:09.382Z,14.24
2023-05-14T09:30:37.066Z,14.11
2023-05-14T09:33:04.967Z,13.94
2023-05-14T09:35:33.304Z,14.12
2023-05-14T09:38:00.847Z,14.33
2023-05-14T09:40:28.911Z,14.42
2023-05-14T09:42:58.164Z,14.32
2023-05-14T09:45:25.994Z,14.64
2023-05-14T09:47:53.777Z,14.34
2023-05-14T09:50:21.738Z,14.49
2023-05-14T09:52:49.416Z,14.20
2023-05-14T09:55:17.065Z,14.46
2023-05-14T09:57:44.980Z,14.76
2023-05-14T10:00:16.012Z,14.85
2023-05-14T10:02:45.839Z,15.00
2023-05-14T10:05:15.784Z,15.43
2023-05-14T10:07:48.280Z,15.40
2023-05-14T10:10:19.522Z,16.09
2023-05-14T10:12:52.308Z,16.41
2023-05-14T10:15:28.094Z,16.62
2023-05-14T10:17:59.710Z,16.41
2023-05-14T10:20:28.642Z,16.57
2023-05-14T10:22:57.199Z,16.68
2023-05-14T10:25:25.606Z,16.47
2023-05-14T10:27:53.880Z,16.61
2023-05-14T10:30:24.046Z,16.42
2023-05-14T10:33:06.927Z,16.17
2023-05-14T10:35:51.925Z,16.01
2023-05-14T10:38:23.859Z,16.04
2023-05-14T10:40:54.090Z,16.17
2023-05-14T10:43:24.233Z,16.35
2023-05-14T10:45:53.103Z,16.17
2023-05-14T10:48:21.281Z,15.87
2023-05-14T10:50:49.175Z,15.42
2023-05-14T10:53:16.715Z,15.34
2023-05-14T10:55:44.977Z,15.75
2023-05-14T10:58:13.489Z,15.97
2023-05-14T11:00:41.843Z,16.15
2023-05-14T11:03:13.028Z,16.40
2023-05-14T11:05:41.902Z,16.64
2023-05-14T11:08:10.041Z,16.95
2023-05-14T11:10:38.889Z,17.12
2023-05-14T11:13:07.031Z,17.88
2023-05-14T11:15:34.617Z,17.95
2023-05-14T11:18:02.218Z,17.82
2023-05-14T11:20:32.672Z,17.49
2023-05-14T11:23:00.262Z,16.75
2023-05-14T11:25:27.885Z,16.43
2023-05-14T11:27:58.583Z,16.50
2023-05-14T11:30:26.131Z,16.42
2023-05-14T11:32:54.283Z,16.34
2023-05-14T11:35:21.998Z,16.85
2023-05-14T11:37:54.015Z,18.17
2023-05-14T11:40:21.990Z,18.10
2023-05-14T11:42:52.001Z,17.04
2023-05-14T11:45:26.751Z,16.24
2023-05-14T11:47:54.782Z,16.17
2023-05-14T11:50:23.517Z,15.69
2023-05-14T11:52:52.038Z,15.59
2023-05-14T11:55:21.062Z,15.56
2023-05-14T11:57:48.832Z,15.76
2023-05-14T12:00:21.657Z,15.41
2023-05-14T12:02:50.462Z,16.10
2023-05-14T12:05:20.076Z,16.36
2023-05-14T12:07:48.227Z,16.49
2023-05-14T12:10:15.855Z,16.75
2023-05-14T12:12:46.922Z,16.93
2023-05-14T12:15:16.285Z,16.51
2023-05-14T12:17:44.280Z,16.39
2023-05-14T12:20:12.882Z,16.79
2023-05-14T12:22:42.614Z,17.00
2023-05-14T12:25:14.321Z,17.08
2023-05-14T12:27:42.202Z,16.70
2023-05-14T12:30:21.220Z,16.49
2023-05-14T12:32:51.699Z,16.41
2023-05-14T12:35:19.917Z,16.49
2023-05-14T12:37:47.515Z,16.50
2023-05-14T12:40:15.170Z,16.59
2023-05-14T12:42:42.672Z,16.73
2023-05-14T12:45:12.689Z,16.65
2023-05-14T12:47:40.347Z,16.76
2023-05-14T12:50:08.857Z,16.93
2023-05-14T12:52:39.165Z,17.04
2023-05-14T12:55:08.116Z,17.14
2023-05-14T12:57:36.021Z,17.23
2023-05-14T13:00:06.849Z,17.22
2023-05-14T13:02:42.790Z,17.19
2023-05-14T13:05:11.671Z,17.65
2023-05-14T13:07:39.419Z,17.78
2023-05-14T13:10:08.074Z,17.92
2023-05-14T13:12:35.604Z,17.99
2023-05-14T13:15:03.154Z,18.17
2023-05-14T13:17:31.137Z,18.28
2023-05-14T13:20:00.172Z,18.39
2023-05-14T13:22:27.715Z,18.32
2023-05-14T13:24:55.221Z,18.40
2023-05-14T13:27:22.714Z,18.45
2023-05-14T13:29:50.228Z,18.37
2023-05-14T13:32:17.739Z,18.38
2023-05-14T13:34:45.245Z,18.37
2023-05-14T13:37:14.628Z,18.49
2023-05-14T13:39:42.130Z,18.45
2023-05-14T13:42:09.704Z,18.61
2023-05-14T13:44:37.262Z,18.65
2023-05-14T13:47:05.258Z,18.61
2023-05-14T13:49:32.771Z,18.44
2023-05-14T13:52:00.249Z,18.43
2023-05-14T13:54:29.134Z,18.69
2023-05-14T13:56:56.808Z,18.73
2023-05-14T13:59:24.561Z,18.88
2023-05-14T14:01:52.200Z,18.65
2023-05-14T14:04:19.908Z,18.50
2023-05-14T14:06:47.429Z,17.98
2023-05-14T14:09:14.985Z,17.57
2023-05-14T14:11:43.955Z,17.44
2023-05-14T14:14:11.483Z,17.04
2023-05-14T14:16:39.094Z,16.43
2023-05-14T14:19:07.412Z,16.08
2023-05-14T14:21:36.101Z,16.57
2023-05-14T14:24:03.702Z,16.14
2023-05-14T14:26:31.231Z,15.60
2023-05-14T14:29:00.051Z,15.26
2023-05-14T14:31:27.600Z,14.86
2023-05-14T14:33:55.114Z,14.99
2023-05-14T14:36:22.717Z,14.95
2023-05-14T14:38:50.339Z,14.66
2023-05-14T14:41:17.847Z,14.35
2023-05-14T14:43:45.401Z,14.31
2023-05-14T14:46:14.254Z,14.41
2023-05-14T14:48:41.805Z,14.42
2023-05-14T14:51:10.250Z,14.66
2023-05-14T14:53:37.895Z,14.48
2023-05-14T14:56:06.167Z,14.75
2023-05-14T14:58:33.852Z,15.27
2023-05-14T15:01:01.917Z,14.63
2023-05-14T15:03:31.277Z,14.33
2023-05-14T15:05:59.091Z,14.26
2023-05-14T15:08:27.796Z,14.32
2023-05-14T15:10:55.523Z,14.84
2023-05-14T15:13:23.270Z,14.68
2023-05-14T15:15:52.128Z,14.33
2023-05-14T15:18:19.674Z,14.36
2023-05-14T15:20:48.599Z,14.32
2023-05-14T15:23:16.130Z,14.20
2023-05-14T15:25:43.656Z,14.86
2023-05-14T15:28:11.242Z,14.99
2023-05-14T15:30:38.863Z,15.43
2023-05-14T15:33:08.516Z,15.08
2023-05-14T15:35:36.454Z,15.28
2023-05-14T15:38:05.423Z,15.08
2023-05-14T15:40:34.833Z,15.23
2023-05-14T15:43:02.686Z,15.24
2023-05-14T15:45:30.203Z,15.62
2023-05-14T15:47:57.880Z,15.58
2023-05-14T15:50:26.257Z,14.50
2023-05-14T15:52:54.384Z,14.10
2023-05-14T15:55:23.510Z,14.00
2023-05-14T15:57:51.113Z,14.02
2023-05-14T16:00:19.542Z,13.61
2023-05-14T16:02:47.180Z,13.58
2023-05-14T16:05:15.291Z,13.71
2023-05-14T16:07:43.306Z,13.74
2023-05-14T16:10:11.446Z,13.77
2023-05-14T16:12:40.387Z,13.41
2023-05-14T16:15:08.854Z,13.48
2023-05-14T16:17:36.457Z,13.55
2023-05-14T16:20:05.573Z,13.55
2023-05-14T16:22:34.611Z,14.25
2023-05-14T16:25:03.482Z,14.91
2023-05-14T16:27:31.453Z,15.20
2023-05-14T16:30:00.639Z,14.60
2023-05-14T16:32:28.229Z,14.16
2023-05-14T16:34:56.396Z,13.92
2023-05-14T16:37:24.053Z,13.66
2023-05-14T16:39:51.581Z,13.43
2023-05-14T16:42:19.150Z,13.43
2023-05-14T16:44:46.684Z,13.34
2023-05-14T16:47:15.633Z,13.19
2023-05-14T16:49:43.309Z,13.03
2023-05-14T16:52:10.955Z,13.09
2023-05-14T16:54:39.548Z,13.11
2023-05-14T16:57:07.092Z,13.07
2023-05-14T16:59:34.869Z,13.04
2023-05-14T17:02:02.657Z,13.03
2023-05-14T17:04:33.136Z,12.97
2023-05-14T17:07:01.431Z,12.93
2023-05-14T17:09:28.954Z,12.81
2023-05-14T17:11:56.608Z,12.82
2023-05-14T17:14:24.167Z,12.78
2023-05-14T17:16:51.687Z,12.78
2023-05-14T17:19:19.217Z,12.83
2023-05-14T17:21:48.117Z,12.86
2023-05-14T17:24:15.726Z,12.84
2023-05-14T17:26:43.258Z,12.84
2023-05-14T17:29:10.754Z,12.85
2023-05-14T17:31:38.334Z,13.23
2023-05-14T17:34:05.901Z,14.19
2023-05-14T17:36:33.444Z,14.27
2023-05-14T17:39:02.317Z,14.75
2023-05-14T17:41:29.806Z,14.62
2023-05-14T17:43:57.324Z,14.06
2023-05-14T17:46:24.919Z,13.70
2023-05-14T17:48:52.463Z,13.50
2023-05-14T17:51:19.973Z,13.37
2023-05-14T17:53:47.469Z,13.28
2023-05-14T17:56:18.306Z,13.18
2023-05-14T17:58:46.390Z,13.09
2023-05-14T18:01:14.053Z,13.08
2023-05-14T18:03:42.235Z,13.01
2023-05-14T18:06:09.897Z,13.04
2023-05-14T18:08:37.795Z,12.89
2023-05-14T18:11:05.386Z,14.06
2023-05-14T18:13:34.247Z,14.74
2023-05-14T18:16:01.863Z,14.10
2023-05-14T18:18:29.454Z,13.69
2023-05-14T18:20:57.100Z,13.44
2023-05-14T18:23:24.645Z,13.30
2023-05-14T18:25:52.218Z,13.22
2023-05-14T18:28:21.308Z,13.11
2023-05-14T18:30:50.345Z,12.98
2023-05-14T18:33:18.044Z,12.85
2023-05-14T18:35:45.684Z,12.61
2023-05-14T18:38:13.718Z,12.50
2023-05-14T18:40:43.824Z,12.53
2023-05-14T18:43:13.208Z,12.53
2023-05-14T18:45:40.843Z,12.52
2023-05-14T18:48:10.281Z,12.55
2023-05-14T18:50:39.407Z,12.55
2023-05-14T18:53:08.308Z,12.53
2023-05-14T18:55:36.317Z,13.12
2023-05-14T18:58:03.975Z,14.00
2023-05-14T19:00:31.467Z,14.57
2023-05-14T19:02:59.086Z,13.87
2023-05-14T19:05:27.993Z,13.36
2023-05-14T19:07:55.627Z,13.03
2023-05-14T19:10:23.170Z,12.82
2023-05-14T19:12:50.978Z,12.65
2023-05-14T19:15:18.595Z,12.65
2023-05-14T19:17:46.254Z,12.62
2023-05-14T19:20:13.940Z,12.63
2023-05-14T19:22:42.804Z,13.35
2023-05-14T19:25:11.508Z,14.10
2023-05-14T19:27:39.341Z,14.59
2023-05-14T19:30:08.043Z,13.35
2023-05-14T19:32:37.417Z,12.48
2023-05-14T19:35:05.581Z,11.87
2023-05-14T19:37:33.153Z,11.64
2023-05-14T19:40:02.067Z,11.75
2023-05-14T19:42:30.580Z,11.79
2023-05-14T19:44:58.133Z,12.04
2023-05-14T19:47:25.795Z,12.13
2023-05-14T19:49:53.326Z,12.18
2023-05-14T19:52:20.896Z,12.22
2023-05-14T19:54:48.432Z,12.27
2023-05-14T19:57:17.307Z,12.34
2023-05-14T19:59:45.033Z,12.35
2023-05-14T20:02:18.012Z,12.35
2023-05-14T20:04:45.966Z,13.47
2023-05-14T20:07:15.437Z,14.28
2023-05-14T20:09:43.209Z,14.71
2023-05-14T20:12:12.747Z,14.75
2023-05-14T20:14:41.755Z,14.73
2023-05-14T20:17:09.494Z,14.77
2023-05-14T20:19:37.082Z,14.94
2023-05-14T20:22:04.767Z,15.23
2023-05-14T20:24:32.368Z,15.41
2023-05-14T20:26:59.883Z,15.45
2023-05-14T20:29:27.347Z,14.38
2023-05-14T20:31:56.839Z,13.72
2023-05-14T20:34:24.551Z,13.33
2023-05-14T20:36:52.129Z,13.13
2023-05-14T20:39:19.695Z,13.13
2023-05-14T20:41:47.232Z,13.04
2023-05-14T20:44:14.814Z,12.69
2023-05-14T20:46:42.390Z,12.52
2023-05-14T20:49:11.342Z,12.50
2023-05-14T20:51:38.908Z,12.52
2023-05-14T20:54:06.540Z,12.53
2023-05-14T20:56:36.436Z,12.30
2023-05-14T20:59:03.970Z,12.18
2023-05-14T21:01:31.513Z,12.09
2023-05-14T21:03:59.262Z,12.16
2023-05-14T21:06:28.375Z,12.21
2023-05-14T21:08:55.916Z,11.76
2023-05-14T21:11:23.854Z,12.01
2023-05-14T21:13:51.384Z,11.97
2023-05-14T21:16:19.878Z,11.87
2023-05-14T21:18:47.458Z,11.96
2023-05-14T21:21:14.967Z,11.74
2023-05-14T21:23:43.848Z,11.86
2023-05-14T21:26:11.429Z,11.98
2023-05-14T21:28:38.964Z,11.89
2023-05-14T21:31:06.653Z,11.77
2023-05-14T21:33:34.238Z,11.74
2023-05-14T21:36:01.831Z,11.63
2023-05-14T21:38:29.462Z,11.59
2023-05-14T21:40:58.321Z,11.49
2023-05-14T21:43:25.870Z,11.62
2023-05-14T21:45:53.598Z,11.35
2023-05-14T21:48:21.427Z,11.00
2023-05-14T21:50:49.162Z,10.88
2023-05-14T21:53:16.864Z,10.82
2023-05-14T21:55:44.429Z,11.06
2023-05-14T21:58:13.405Z,11.19
2023-05-14T22:00:41.089Z,11.43
2023-05-14T22:03:08.720Z,11.52
2023-05-14T22:05:36.500Z,11.63
2023-05-14T22:08:04.030Z,11.54
2023-05-14T22:10:31.618Z,11.56
2023-05-14T22:12:59.149Z,11.69
2023-05-14T22:15:28.107Z,11.81
2023-05-14T22:17:55.747Z,11.87
2023-05-14T22:20:23.460Z,11.90
2023-05-14T22:22:51.449Z,11.93
2023-05-14T22:25:19.009Z,11.85
2023-05-14T22:27:46.556Z,11.84
2023-05-14T22:30:14.252Z,11.77
2023-05-14T22:32:43.292Z,11.52
2023-05-14T22:35:11.092Z,11.48
2023-05-14T22:37:38.742Z,11.60
2023-05-14T22:40:08.744Z,11.67
2023-05-14T22:42:36.407Z,11.69
2023-05-14T22:45:04.008Z,11.70
2023-05-14T22:47:31.827Z,11.76
2023-05-14T22:50:00.739Z,11.83
2023-05-14T22:52:28.319Z,11.79
2023-05-14T22:54:55.896Z,11.77
2023-05-14T22:57:23.484Z,11.88
2023-05-14T22:59:50.990Z,11.92
2023-05-14T23:02:18.517Z,11.88
2023-05-14T23:04:46.116Z,11.82
2023-05-14T23:07:15.209Z,11.82
2023-05-14T23:09:42.739Z,11.71
2023-05-14T23:12:10.631Z,11.52
2023-05-14T23:14:38.322Z,11.63
2023-05-14T23:17:06.878Z,11.73
2023-05-14T23:19:34.425Z,11.76
2023-05-14T23:22:01.992Z,11.64
2023-05-14T23:24:30.866Z,11.55
2023-05-14T23:26:58.429Z,11.67
2023-05-14T23:29:25.994Z,11.60
2023-05-14T23:31:53.593Z,11.67
2023-05-14T23:34:22.006Z,11.71
2023-05-14T23:36:49.629Z,11.77
2023-05-14T23:39:17.381Z,11.81
2023-05-14T23:41:46.293Z,11.81
2023-05-14T23:44:13.876Z,11.86
2023-05-14T23:46:41.440Z,11.86
2023-05-14T23:49:08.993Z,11.86
2023-05-14T23:51:37.670Z,11.91
2023-05-14T23:54:05.444Z,11.90
2023-05-14T23:56:33.572Z,11.90
2023-05-14T23:59:03.487Z,11.91
